Time;durP1;ratioP1;P1;durP2;ratioP2;P2;SDS_P1;SDS_P2;PMS_P1;PMS_P2;Temp;Humidity;BMP_temperature;BMP_pressure;BME280_temperature;BME280_humidity;BME280_pressure;Samples;Min_cycle;Max_cycle;Signal;HPM_P1;HPM_P2
2023/01/25 00:01:53;;;;;;;7.97;5.17;;;1.10;99.90;;;;;;4771969;30;20180;-86
2023/01/25 00:04:20;;;;;;;6.50;4.47;;;1.10;99.90;;;;;;4770564;30;20602;-85
2023/01/25 00:06:46;;;;;;;6.13;4.80;;;1.10;99.90;;;;;;4771089;30;20184;-86
2023/01/25 00:09:12;;;;;;;6.23;4.67;;;1.10;99.90;;;;;;4770323;30;20184;-83
2023/01/25 00:11:38;;;;;;;6.30;4.87;;;1.10;99.90;;;;;;4770311;30;20527;-86
2023/01/25 00:14:05;;;;;;;6.33;4.57;;;1.10;99.90;;;;;;4771193;30;20203;-86
2023/01/25 00:16:31;;;;;;;7.10;4.77;;;1.10;99.90;;;;;;4771370;30;20223;-82
2023/01/25 00:18:57;;;;;;;8.40;5.27;;;1.10;99.90;;;;;;4771394;30;20176;-82
2023/01/25 00:21:25;;;;;;;8.37;5.47;;;1.10;99.90;;;;;;4770003;30;20191;-83
2023/01/25 00:23:51;;;;;;;5.90;4.70;;;1.00;99.90;;;;;;4771014;30;20195;-82
2023/01/25 00:26:17;;;;;;;7.27;5.13;;;1.10;99.90;;;;;;4771190;30;20180;-86
2023/01/25 00:28:48;;;;;;;7.43;5.27;;;1.10;99.90;;;;;;4771450;30;20180;-86
2023/01/25 00:31:20;;;;;;;6.03;4.83;;;1.10;99.90;;;;;;4770302;30;20581;-85
2023/01/25 00:34:19;;;;;;;6.83;4.60;;;1.10;99.90;;;;;;4771260;30;20199;-86
2023/01/25 00:36:45;;;;;;;7.80;5.43;;;1.10;99.90;;;;;;4769715;30;20207;-82
2023/01/25 00:39:12;;;;;;;7.47;5.10;;;1.10;99.90;;;;;;4771195;30;20172;-86
2023/01/25 00:41:39;;;;;;;8.10;5.77;;;1.10;99.90;;;;;;4769946;30;20243;-84
2023/01/25 00:44:05;;;;;;;8.57;5.60;;;1.10;99.90;;;;;;4769872;30;20249;-85
2023/01/25 00:46:31;;;;;;;8.50;5.87;;;1.10;99.90;;;;;;4771078;30;20270;-85
2023/01/25 00:48:56;;;;;;;9.50;6.03;;;1.10;99.90;;;;;;4770784;30;20251;-86
2023/01/25 00:51:23;;;;;;;8.17;5.63;;;1.10;99.90;;;;;;4769627;30;20192;-85
2023/01/25 00:53:49;;;;;;;7.63;5.77;;;1.10;99.90;;;;;;4770893;30;20187;-84
2023/01/25 00:56:15;;;;;;;8.33;6.50;;;1.10;99.90;;;;;;4770686;30;20228;-85
2023/01/25 00:58:41;;;;;;;10.43;6.57;;;1.10;99.90;;;;;;4770911;30;20271;-85
2023/01/25 01:01:07;;;;;;;9.77;6.30;;;1.10;99.90;;;;;;4770572;30;20192;-82
2023/01/25 01:03:33;;;;;;;9.37;6.47;;;1.10;99.90;;;;;;4769116;30;20187;-83
2023/01/25 01:06:11;;;;;;;9.50;7.00;;;1.00;99.90;;;;;;4770081;30;20236;-83
2023/01/25 01:08:41;;;;;;;8.50;6.23;;;1.00;99.90;;;;;;4769291;30;20272;-83
2023/01/25 01:11:10;;;;;;;9.07;5.83;;;1.10;99.90;;;;;;4769283;30;20329;-82
2023/01/25 01:13:36;;;;;;;8.73;6.37;;;1.10;99.90;;;;;;4770364;30;20188;-82
2023/01/25 01:16:07;;;;;;;9.43;6.50;;;1.10;99.90;;;;;;4769258;30;20674;-83
2023/01/25 01:18:42;;;;;;;8.90;6.03;;;1.10;99.90;;;;;;4784064;29;20279;-83
2023/01/25 01:21:09;;;;;;;7.73;6.10;;;1.10;99.90;;;;;;4769317;30;20188;-85
2023/01/25 01:23:35;;;;;;;8.50;5.70;;;1.10;99.90;;;;;;4769339;30;20261;-85
2023/01/25 01:26:08;;;;;;;7.27;5.40;;;1.10;99.90;;;;;;4771054;30;20636;-82
2023/01/25 01:28:35;;;;;;;8.80;6.33;;;1.10;99.90;;;;;;4770862;30;20671;-82
2023/01/25 01:31:01;;;;;;;9.17;6.20;;;1.00;99.90;;;;;;4770744;30;20183;-87
2023/01/25 01:33:28;;;;;;;9.23;6.10;;;1.00;99.90;;;;;;4770696;30;20191;-86
2023/01/25 01:35:54;;;;;;;8.33;5.60;;;1.00;99.90;;;;;;4769408;30;20231;-86
2023/01/25 01:38:20;;;;;;;9.57;5.97;;;1.00;99.90;;;;;;4771007;30;20184;-86
2023/01/25 01:40:47;;;;;;;7.90;5.60;;;1.00;99.90;;;;;;4770863;30;20246;-86
2023/01/25 01:43:21;;;;;;;9.23;6.57;;;1.00;99.90;;;;;;4769709;30;20215;-86
2023/01/25 01:45:51;;;;;;;7.87;5.73;;;1.00;99.90;;;;;;4771054;30;20252;-86
2023/01/25 01:48:35;;;;;;;12.00;6.80;;;1.00;99.90;;;;;;4770865;30;20203;-86
2023/01/25 01:51:23;;;;;;;7.83;5.53;;;1.00;99.90;;;;;;4769529;30;20192;-86
2023/01/25 01:53:59;;;;;;;8.50;5.97;;;1.00;99.90;;;;;;4769292;30;20279;-84
2023/01/25 01:56:34;;;;;;;9.83;6.20;;;1.00;99.90;;;;;;4770078;30;20684;-84
2023/01/25 01:59:03;;;;;;;7.93;5.43;;;1.00;99.90;;;;;;4769017;30;20267;-83
2023/01/25 02:01:30;;;;;;;9.07;5.80;;;1.10;99.90;;;;;;4772838;30;20678;-83
2023/01/25 02:03:56;;;;;;;9.20;6.20;;;1.10;99.90;;;;;;4773308;30;20180;-82
2023/01/25 02:06:39;;;;;;;8.23;5.50;;;1.10;99.90;;;;;;4773019;30;20236;-82
2023/01/25 02:09:05;;;;;;;10.23;6.70;;;1.10;99.90;;;;;;4771247;30;20222;-83
2023/01/25 02:11:32;;;;;;;10.53;6.63;;;1.10;99.90;;;;;;4772689;30;20226;-81
2023/01/25 02:13:59;;;;;;;9.37;6.63;;;1.10;99.90;;;;;;4772666;30;20208;-82
2023/01/25 02:16:27;;;;;;;9.17;6.67;;;1.10;99.90;;;;;;4773125;30;20216;-83
2023/01/25 02:18:54;;;;;;;9.60;6.90;;;1.00;99.90;;;;;;4787086;29;20220;-83
2023/01/25 02:21:22;;;;;;;11.53;7.47;;;1.10;99.90;;;;;;4772920;30;20220;-83
2023/01/25 02:24:02;;;;;;;13.40;7.47;;;1.10;99.90;;;;;;4786618;30;20210;-85
2023/01/25 02:26:28;;;;;;;10.33;6.90;;;1.10;99.90;;;;;;4786777;30;20216;-85
2023/01/25 02:29:04;;;;;;;11.87;7.47;;;1.10;99.90;;;;;;4773168;30;20665;-83
2023/01/25 02:31:30;;;;;;;11.63;7.13;;;1.10;99.90;;;;;;4773048;30;20180;-83
2023/01/25 02:33:55;;;;;;;11.20;7.50;;;1.10;99.90;;;;;;4786571;29;20620;-83
2023/01/25 02:36:32;;;;;;;11.83;7.00;;;1.10;99.90;;;;;;4772393;30;20219;-82
2023/01/25 02:39:12;;;;;;;10.97;6.90;;;1.10;99.90;;;;;;4771660;30;20192;-85
2023/01/25 02:41:40;;;;;;;11.67;7.13;;;1.10;99.90;;;;;;4771166;30;20243;-82
2023/01/25 02:44:25;;;;;;;9.80;6.87;;;1.10;99.90;;;;;;4772803;30;20212;-83
2023/01/25 02:46:51;;;;;;;11.57;7.70;;;1.00;99.90;;;;;;4772880;30;20191;-83
2023/01/25 02:49:18;;;;;;;10.90;7.43;;;1.10;99.90;;;;;;4772766;30;20551;-83
2023/01/25 02:51:47;;;;;;;11.10;7.63;;;1.10;99.90;;;;;;4771139;30;20192;-86
2023/01/25 02:54:14;;;;;;;12.37;7.60;;;1.10;99.90;;;;;;4786515;29;20184;-84
2023/01/25 02:56:40;;;;;;;12.20;8.33;;;1.10;99.90;;;;;;4772715;30;20303;-83
2023/01/25 02:59:07;;;;;;;13.73;8.97;;;1.10;99.90;;;;;;4772592;30;20579;-81
2023/01/25 03:01:35;;;;;;;14.17;8.13;;;1.00;99.90;;;;;;4785944;29;20215;-84
2023/01/25 03:04:01;;;;;;;12.17;8.60;;;1.10;99.90;;;;;;4771135;30;20191;-83
2023/01/25 03:06:27;;;;;;;13.70;8.83;;;1.10;99.90;;;;;;4771997;30;20183;-82
2023/01/25 03:08:52;;;;;;;13.67;8.60;;;1.10;99.90;;;;;;4771341;30;20188;-82
2023/01/25 03:11:18;;;;;;;12.23;8.20;;;1.10;99.90;;;;;;4770883;30;20632;-83
2023/01/25 03:13:44;;;;;;;14.57;9.07;;;1.10;99.90;;;;;;4771687;30;20199;-85
2023/01/25 03:16:11;;;;;;;13.50;8.63;;;1.10;99.90;;;;;;5172520;24;20254;-84
2023/01/25 03:18:38;;;;;;;15.53;9.67;;;1.00;99.90;;;;;;4771199;30;20196;-85
2023/01/25 03:21:15;;;;;;;15.80;9.50;;;1.00;99.90;;;;;;4772466;30;20184;-85
2023/01/25 03:23:42;;;;;;;14.97;9.50;;;1.00;99.90;;;;;;4770960;30;20188;-86
2023/01/25 03:26:11;;;;;;;14.53;9.87;;;1.00;99.90;;;;;;4770839;30;20180;-86
2023/01/25 03:28:38;;;;;;;19.27;11.13;;;1.00;99.90;;;;;;4772062;30;20280;-85
2023/01/25 03:31:04;;;;;;;17.57;11.00;;;1.00;99.90;;;;;;4770718;30;20187;-85
2023/01/25 03:33:30;;;;;;;17.00;10.60;;;1.00;99.90;;;;;;4770880;30;20188;-85
2023/01/25 03:35:57;;;;;;;17.07;10.93;;;1.00;99.90;;;;;;4770986;30;20733;-85
2023/01/25 03:38:23;;;;;;;17.47;11.40;;;1.00;99.90;;;;;;4772250;30;20194;-86
2023/01/25 03:40:49;;;;;;;19.20;10.50;;;1.00;99.90;;;;;;4770910;30;20187;-86
2023/01/25 03:43:15;;;;;;;17.83;11.70;;;1.00;99.90;;;;;;4771720;30;20709;-86
2023/01/25 03:45:41;;;;;;;20.07;12.47;;;1.00;99.90;;;;;;4772298;30;20188;-82
2023/01/25 03:48:06;;;;;;;20.60;12.77;;;1.00;99.90;;;;;;4789728;29;20237;-83
2023/01/25 03:50:32;;;;;;;20.67;12.43;;;1.00;99.90;;;;;;4789587;30;20187;-83
2023/01/25 03:53:01;;;;;;;21.30;12.73;;;1.00;99.90;;;;;;4788040;30;20190;-85
2023/01/25 03:55:27;;;;;;;22.20;12.47;;;1.00;99.90;;;;;;4788096;29;20222;-83
2023/01/25 03:57:53;;;;;;;21.13;12.83;;;1.00;99.90;;;;;;4788078;29;20239;-84
2023/01/25 04:00:19;;;;;;;19.87;12.23;;;1.00;99.90;;;;;;4789254;29;20171;-86
2023/01/25 04:02:45;;;;;;;22.13;12.73;;;1.00;99.90;;;;;;4787694;29;20817;-83
2023/01/25 04:05:12;;;;;;;23.73;13.03;;;1.00;99.90;;;;;;4788096;30;20191;-83
2023/01/25 04:07:37;;;;;;;23.30;13.50;;;0.90;99.90;;;;;;4788174;29;20307;-82
2023/01/25 04:10:04;;;;;;;25.80;14.27;;;0.90;99.90;;;;;;4789222;29;20282;-84
2023/01/25 04:12:30;;;;;;;25.37;13.73;;;0.90;99.90;;;;;;4788609;30;20236;-84
2023/01/25 04:14:56;;;;;;;24.03;13.97;;;0.90;99.90;;;;;;4787794;29;20314;-83
2023/01/25 04:17:22;;;;;;;21.10;12.63;;;0.90;99.90;;;;;;4787447;29;20231;-82
2023/01/25 04:19:48;;;;;;;24.43;14.10;;;0.90;99.90;;;;;;4788089;29;20188;-84
2023/01/25 04:22:15;;;;;;;17.83;11.17;;;0.90;99.90;;;;;;4788675;29;20176;-83
2023/01/25 04:24:41;;;;;;;23.90;12.73;;;1.00;99.90;;;;;;4788467;29;20214;-85
2023/01/25 04:27:07;;;;;;;27.47;14.77;;;1.00;99.90;;;;;;4787615;30;20296;-87
2023/01/25 04:29:33;;;;;;;24.83;13.97;;;1.00;99.90;;;;;;4789013;29;20187;-87
2023/01/25 04:32:00;;;;;;;26.97;15.07;;;1.00;99.90;;;;;;4787672;29;20207;-85
2023/01/25 04:34:26;;;;;;;25.37;15.10;;;1.00;99.90;;;;;;4788060;29;20699;-85
2023/01/25 04:36:52;;;;;;;27.93;14.37;;;1.00;99.90;;;;;;4789274;29;20262;-85
2023/01/25 04:39:18;;;;;;;28.73;15.20;;;0.90;99.90;;;;;;4788130;29;20196;-86
2023/01/25 04:41:44;;;;;;;32.63;15.53;;;0.90;99.90;;;;;;4789175;29;20179;-86
2023/01/25 04:44:10;;;;;;;33.83;16.13;;;0.90;99.90;;;;;;4788808;29;20183;-83
2023/01/25 04:46:36;;;;;;;31.10;14.93;;;0.90;99.90;;;;;;4780194;29;20632;-83
2023/01/25 04:49:02;;;;;;;29.33;15.17;;;0.90;99.90;;;;;;4769614;30;20194;-82
2023/01/25 04:51:27;;;;;;;28.17;14.90;;;1.00;99.90;;;;;;4770942;30;20187;-83
2023/01/25 04:53:53;;;;;;;29.20;15.30;;;1.00;99.90;;;;;;4770490;30;20242;-83
2023/01/25 04:56:19;;;;;;;30.83;15.27;;;0.90;99.90;;;;;;4770841;30;20221;-84
2023/01/25 04:58:44;;;;;;;32.90;15.97;;;0.90;99.90;;;;;;4770693;30;20182;-82
2023/01/25 05:01:10;;;;;;;32.17;15.97;;;0.90;99.90;;;;;;4770577;30;20596;-82
2023/01/25 05:03:36;;;;;;;31.23;14.77;;;0.80;99.90;;;;;;4769285;30;20192;-83
2023/01/25 05:06:02;;;;;;;28.30;14.87;;;0.80;99.90;;;;;;4770676;30;20839;-82
2023/01/25 05:08:27;;;;;;;29.90;15.03;;;0.70;99.90;;;;;;4770718;30;20227;-82
2023/01/25 05:10:53;;;;;;;30.20;15.23;;;0.80;99.90;;;;;;4769406;30;20199;-81
2023/01/25 05:13:19;;;;;;;29.10;14.67;;;0.80;99.90;;;;;;4770206;30;20615;-84
2023/01/25 05:15:45;;;;;;;27.30;13.70;;;0.80;99.90;;;;;;4770132;30;20255;-82
2023/01/25 05:18:12;;;;;;;29.43;13.17;;;0.80;99.90;;;;;;4788521;30;20217;-83
2023/01/25 05:20:38;;;;;;;24.07;13.07;;;0.80;99.90;;;;;;4788485;29;20179;-83
2023/01/25 05:23:03;;;;;;;28.10;13.17;;;0.80;99.90;;;;;;4787047;29;20642;-86
2023/01/25 05:28:13;;;;;;;24.40;13.37;;;0.80;99.90;;;;;;4788397;30;20673;-82
2023/01/25 05:30:39;;;;;;;26.07;12.83;;;0.80;99.90;;;;;;4787207;29;20196;-85
2023/01/25 05:33:05;;;;;;;25.03;13.10;;;0.70;99.90;;;;;;4786522;29;20192;-83
2023/01/25 05:35:31;;;;;;;24.57;12.93;;;0.70;99.90;;;;;;4789507;29;20230;-82
2023/01/25 05:37:58;;;;;;;24.53;12.37;;;0.70;99.90;;;;;;4791564;29;20184;-82
2023/01/25 05:40:25;;;;;;;24.33;12.77;;;0.60;99.90;;;;;;4786921;29;20191;-84
2023/01/25 05:43:01;;;;;;;21.77;11.50;;;0.60;99.90;;;;;;4771748;30;20191;-83
2023/01/25 05:45:28;;;;;;;22.90;11.87;;;0.60;99.90;;;;;;4772439;30;20186;-84
2023/01/25 05:47:58;;;;;;;22.43;11.47;;;0.60;99.90;;;;;;4789824;30;20186;-83
2023/01/25 05:50:25;;;;;;;21.40;11.10;;;0.60;99.90;;;;;;4790214;30;20194;-85
2023/01/25 05:52:51;;;;;;;20.97;10.47;;;0.70;99.90;;;;;;4791044;29;20259;-83
2023/01/25 05:55:16;;;;;;;20.90;11.03;;;0.60;99.90;;;;;;4791330;29;20238;-83
2023/01/25 05:57:42;;;;;;;18.47;10.20;;;0.60;99.90;;;;;;4781501;29;20610;-82
2023/01/25 06:00:10;;;;;;;15.87;10.17;;;0.60;99.90;;;;;;4762620;30;20692;-82
2023/01/25 06:02:35;;;;;;;21.70;10.50;;;0.50;99.90;;;;;;4771620;30;20568;-82
2023/01/25 06:05:02;;;;;;;21.40;11.17;;;0.50;99.90;;;;;;4770282;30;20624;-83
2023/01/25 06:07:28;;;;;;;18.50;10.70;;;0.60;99.90;;;;;;4773039;30;20689;-82
2023/01/25 06:09:54;;;;;;;19.43;9.73;;;0.60;99.90;;;;;;4773227;30;20188;-85
2023/01/25 06:12:20;;;;;;;16.83;9.10;;;0.50;99.90;;;;;;4772829;30;20263;-83
2023/01/25 06:14:46;;;;;;;18.93;9.50;;;0.50;99.90;;;;;;4771916;30;20220;-81
2023/01/25 06:17:12;;;;;;;15.87;8.97;;;0.60;99.90;;;;;;4772859;30;20244;-82
2023/01/25 06:19:39;;;;;;;17.27;9.17;;;0.50;99.90;;;;;;4771980;30;20229;-83
2023/01/25 06:22:06;;;;;;;14.17;7.97;;;0.50;99.90;;;;;;4772831;30;20242;-83
2023/01/25 06:24:32;;;;;;;16.53;8.90;;;0.50;99.90;;;;;;4773022;30;20222;-83
2023/01/25 06:26:58;;;;;;;15.67;9.17;;;0.50;99.90;;;;;;4773068;30;20219;-82
2023/01/25 06:29:25;;;;;;;15.53;8.70;;;0.50;99.90;;;;;;4771622;30;20198;-84
2023/01/25 06:31:50;;;;;;;17.77;9.70;;;0.50;99.90;;;;;;4772778;30;20191;-82
2023/01/25 06:34:16;;;;;;;16.00;9.70;;;0.50;99.90;;;;;;4771554;29;20191;-82
2023/01/25 06:36:42;;;;;;;17.00;9.70;;;0.40;99.90;;;;;;4788383;30;20219;-83
2023/01/25 06:39:08;;;;;;;17.30;9.60;;;0.50;99.90;;;;;;4790868;29;20189;-82
2023/01/25 06:41:34;;;;;;;20.90;10.40;;;0.50;99.90;;;;;;4789680;30;20211;-82
2023/01/25 06:43:59;;;;;;;17.67;9.80;;;0.50;99.90;;;;;;4789065;29;20192;-83
2023/01/25 06:46:25;;;;;;;17.07;9.17;;;0.50;99.90;;;;;;4789850;29;20188;-83
2023/01/25 06:48:51;;;;;;;21.87;10.03;;;0.50;99.90;;;;;;4790570;29;20304;-81
2023/01/25 06:51:17;;;;;;;17.17;9.47;;;0.50;99.90;;;;;;4790397;29;20171;-81
2023/01/25 06:53:45;;;;;;;18.90;9.87;;;0.50;99.90;;;;;;4790386;29;20682;-82
2023/01/25 06:56:13;;;;;;;19.23;10.23;;;0.50;99.90;;;;;;4790424;29;20215;-82
2023/01/25 06:58:39;;;;;;;18.97;9.57;;;0.50;99.90;;;;;;4789125;29;20179;-85
2023/01/25 07:01:11;;;;;;;18.03;9.60;;;0.50;99.90;;;;;;4790403;29;20178;-82
2023/01/25 07:03:36;;;;;;;18.43;10.10;;;0.50;99.90;;;;;;4789054;29;20309;-82
2023/01/25 07:06:04;;;;;;;17.60;9.27;;;0.50;99.90;;;;;;4788892;29;20195;-83
2023/01/25 07:08:32;;;;;;;17.60;9.33;;;0.50;99.90;;;;;;4790376;29;20215;-83
2023/01/25 07:11:01;;;;;;;19.03;9.67;;;0.50;99.90;;;;;;4790340;29;20639;-82
2023/01/25 07:13:29;;;;;;;21.23;9.93;;;0.50;99.90;;;;;;4789930;29;20178;-82
2023/01/25 07:16:00;;;;;;;18.97;9.73;;;0.50;99.90;;;;;;4789910;29;20266;-83
2023/01/25 07:18:28;;;;;;;19.83;11.00;;;0.50;99.90;;;;;;4789036;29;20255;-82
2023/01/25 07:21:00;;;;;;;24.07;11.40;;;0.50;99.90;;;;;;4789926;29;20188;-86
2023/01/25 07:23:26;;;;;;;19.90;9.87;;;0.50;99.90;;;;;;4788913;30;20189;-81
2023/01/25 07:25:52;;;;;;;18.40;10.07;;;0.60;99.90;;;;;;4790024;29;20187;-82
2023/01/25 07:28:18;;;;;;;20.53;10.30;;;0.60;99.90;;;;;;4790030;29;20194;-81
2023/01/25 07:30:44;;;;;;;21.60;10.93;;;0.60;99.90;;;;;;4790134;29;20191;-83
2023/01/25 07:33:10;;;;;;;17.17;9.13;;;0.60;99.90;;;;;;4788623;29;20277;-84
2023/01/25 07:35:36;;;;;;;21.70;10.10;;;0.60;99.90;;;;;;4788250;29;20313;-83
2023/01/25 07:38:03;;;;;;;20.57;10.47;;;0.60;99.90;;;;;;4789801;29;20187;-83
2023/01/25 07:40:29;;;;;;;20.37;9.70;;;0.60;99.90;;;;;;4788652;29;20186;-84
2023/01/25 07:42:55;;;;;;;18.77;9.60;;;0.60;99.90;;;;;;4788490;29;20183;-84
2023/01/25 07:45:27;;;;;;;17.20;9.73;;;0.60;99.90;;;;;;4788598;29;20197;-82
2023/01/25 07:47:53;;;;;;;16.27;9.03;;;0.60;99.90;;;;;;4789947;29;20181;-83
2023/01/25 07:50:21;;;;;;;21.83;11.43;;;0.70;99.90;;;;;;4789420;29;20609;-86
2023/01/25 07:52:46;;;;;;;24.37;10.53;;;0.70;99.90;;;;;;4789470;29;20608;-81
2023/01/25 07:55:12;;;;;;;18.60;10.43;;;0.70;99.90;;;;;;4789410;29;20215;-83
2023/01/25 07:57:38;;;;;;;20.03;9.90;;;0.70;99.90;;;;;;4789484;29;20634;-82
2023/01/25 08:00:09;;;;;;;18.83;9.97;;;0.60;99.90;;;;;;4789562;29;20175;-83
2023/01/25 08:02:35;;;;;;;20.53;10.00;;;0.70;99.90;;;;;;4789262;29;20172;-82
2023/01/25 08:05:01;;;;;;;20.87;10.57;;;0.70;99.90;;;;;;4789387;29;20624;-83
2023/01/25 08:07:28;;;;;;;19.73;10.53;;;0.70;99.90;;;;;;4788953;29;20269;-81
2023/01/25 08:09:54;;;;;;;23.87;11.30;;;0.70;99.90;;;;;;4789350;29;20182;-81
2023/01/25 08:12:21;;;;;;;22.03;10.17;;;0.70;99.90;;;;;;4770211;30;20202;-80
2023/01/25 08:14:48;;;;;;;22.03;11.50;;;0.70;99.90;;;;;;4769765;30;20327;-84
2023/01/25 08:17:14;;;;;;;19.77;10.00;;;0.70;99.90;;;;;;4771129;30;20315;-82
2023/01/25 08:19:41;;;;;;;19.43;9.60;;;0.70;99.90;;;;;;4771100;30;20619;-82
2023/01/25 08:22:07;;;;;;;18.57;9.37;;;0.70;99.90;;;;;;4770728;30;20179;-86
2023/01/25 08:24:33;;;;;;;17.73;8.77;;;0.70;99.90;;;;;;4769762;30;20188;-84
2023/01/25 08:26:59;;;;;;;18.63;9.70;;;0.60;99.90;;;;;;4759832;30;20199;-82
2023/01/25 08:29:26;;;;;;;18.10;8.70;;;0.70;99.90;;;;;;4754101;30;20180;-83
2023/01/25 08:31:52;;;;;;;18.63;8.77;;;0.60;99.90;;;;;;4771084;30;20198;-82
2023/01/25 08:34:18;;;;;;;18.93;9.07;;;0.60;99.90;;;;;;4770552;30;20235;-82
2023/01/25 08:36:44;;;;;;;20.60;10.00;;;0.60;99.90;;;;;;4786681;30;20649;-83
2023/01/25 08:39:11;;;;;;;20.77;10.10;;;0.60;99.90;;;;;;4788679;29;20651;-83
2023/01/25 08:41:38;;;;;;;20.53;10.03;;;0.60;99.90;;;;;;4787670;29;20201;-84
2023/01/25 08:44:04;;;;;;;20.63;10.20;;;0.60;99.90;;;;;;4788522;29;20179;-83
2023/01/25 08:46:31;;;;;;;19.23;9.20;;;0.60;99.90;;;;;;4788762;29;20245;-82
2023/01/25 08:48:59;;;;;;;21.43;10.20;;;0.60;99.90;;;;;;4788547;29;20187;-82
2023/01/25 08:51:25;;;;;;;23.00;9.63;;;0.60;99.90;;;;;;4788471;29;20179;-86
2023/01/25 08:53:51;;;;;;;20.80;9.83;;;0.60;99.90;;;;;;4786560;29;20183;-84
2023/01/25 08:56:17;;;;;;;21.30;9.20;;;0.60;99.90;;;;;;4770939;30;20598;-82
2023/01/25 08:58:45;;;;;;;17.10;9.43;;;0.60;99.90;;;;;;4770841;30;20210;-80
2023/01/25 09:01:14;;;;;;;19.47;10.07;;;0.60;99.90;;;;;;4769163;30;20786;-81
2023/01/25 09:03:42;;;;;;;18.80;9.23;;;0.60;99.90;;;;;;4769259;30;20190;-85
2023/01/25 09:06:09;;;;;;;20.90;9.73;;;0.60;99.90;;;;;;4781881;30;20198;-84
2023/01/25 09:08:36;;;;;;;21.17;9.40;;;0.60;99.90;;;;;;4788649;29;20179;-85
2023/01/25 09:11:05;;;;;;;20.63;10.13;;;0.60;99.90;;;;;;4791238;29;20202;-85
2023/01/25 09:13:31;;;;;;;22.90;10.20;;;0.60;99.90;;;;;;4790508;29;20189;-84
2023/01/25 09:16:05;;;;;;;20.83;10.40;;;0.70;99.90;;;;;;4791929;29;20239;-86
2023/01/25 09:18:32;;;;;;;19.13;9.70;;;0.60;99.90;;;;;;4792413;29;20187;-87
2023/01/25 09:20:59;;;;;;;20.13;10.00;;;0.70;99.90;;;;;;4790940;29;20230;-87
2023/01/25 09:23:25;;;;;;;26.77;11.30;;;0.70;99.90;;;;;;4790090;29;20176;-82
2023/01/25 09:26:02;;;;;;;23.30;10.67;;;0.70;99.90;;;;;;4791607;29;20266;-83
2023/01/25 09:28:29;;;;;;;23.70;9.97;;;0.70;99.90;;;;;;4791431;29;20224;-81
2023/01/25 09:31:01;;;;;;;25.83;11.87;;;0.70;99.90;;;;;;4791360;29;20278;-81
2023/01/25 09:33:30;;;;;;;25.60;10.57;;;0.70;99.90;;;;;;4789899;29;20240;-81
2023/01/25 09:35:56;;;;;;;21.20;11.23;;;0.70;99.90;;;;;;4789680;29;20269;-82
2023/01/25 09:38:23;;;;;;;32.57;12.27;;;0.70;99.90;;;;;;4791407;29;20271;-82
2023/01/25 09:40:58;;;;;;;26.63;11.67;;;0.60;99.90;;;;;;4790060;29;20194;-82
2023/01/25 09:43:59;;;;;;;26.30;12.63;;;0.60;99.90;;;;;;4791048;29;20179;-82
2023/01/25 09:46:40;;;;;;;29.20;13.10;;;0.60;99.90;;;;;;4790128;29;20279;-82
2023/01/25 09:49:24;;;;;;;24.23;12.50;;;0.60;99.90;;;;;;4791324;29;20210;-83
2023/01/25 09:52:29;;;;;;;30.37;13.67;;;0.60;99.90;;;;;;4790668;29;20179;-81
2023/01/25 09:54:56;;;;;;;32.30;13.90;;;0.70;99.90;;;;;;4791004;29;20207;-82
2023/01/25 09:57:38;;;;;;;27.40;13.50;;;0.60;99.90;;;;;;4789794;29;20358;-82
2023/01/25 10:00:35;;;;;;;25.50;12.20;;;0.60;99.90;;;;;;4789220;29;20631;-83
2023/01/25 10:03:26;;;;;;;23.27;9.53;;;0.60;99.90;;;;;;4770951;30;20194;-82
2023/01/25 10:05:58;;;;;;;23.17;11.13;;;0.60;99.90;;;;;;4781936;30;20213;-84
2023/01/25 10:08:46;;;;;;;24.93;11.27;;;0.50;99.90;;;;;;4790009;29;20208;-83
2023/01/25 10:11:30;;;;;;;24.57;11.73;;;0.50;99.90;;;;;;4790975;29;20185;-83
2023/01/25 10:13:58;;;;;;;31.33;12.03;;;0.50;99.90;;;;;;4788832;29;20776;-84
2023/01/25 10:16:35;;;;;;;29.67;12.70;;;0.50;99.90;;;;;;4790121;29;20289;-85
2023/01/25 10:19:05;;;;;;;29.87;13.30;;;0.50;99.90;;;;;;4788351;29;20205;-83
2023/01/25 10:21:44;;;;;;;26.63;12.43;;;0.50;99.90;;;;;;4788531;29;20252;-85
2023/01/25 10:24:34;;;;;;;26.47;12.90;;;0.40;99.90;;;;;;4789261;29;20174;-85
2023/01/25 10:27:41;;;;;;;29.67;12.63;;;0.40;99.90;;;;;;4790729;29;20182;-82
2023/01/25 10:30:27;;;;;;;30.50;12.77;;;0.40;99.90;;;;;;4789673;29;20197;-86
2023/01/25 10:33:12;;;;;;;32.17;12.50;;;0.40;99.90;;;;;;4789208;29;20321;-85
2023/01/25 10:35:45;;;;;;;31.87;12.97;;;0.40;99.90;;;;;;4789790;29;20223;-85
2023/01/25 10:38:22;;;;;;;32.20;11.90;;;0.40;99.90;;;;;;4790045;29;20186;-86
2023/01/25 10:41:14;;;;;;;24.97;12.50;;;0.30;99.90;;;;;;4782476;29;20179;-84
2023/01/25 10:43:40;;;;;;;23.50;11.57;;;0.40;99.90;;;;;;4765301;30;20607;-86
2023/01/25 10:46:25;;;;;;;24.10;12.13;;;0.40;99.90;;;;;;4771857;30;20180;-86
2023/01/25 10:48:51;;;;;;;27.10;12.97;;;0.40;99.90;;;;;;4773367;30;20183;-85
2023/01/25 10:51:32;;;;;;;30.13;14.03;;;0.50;99.90;;;;;;4773009;30;20235;-86
2023/01/25 10:54:02;;;;;;;29.87;14.50;;;0.50;99.90;;;;;;4771736;30;20184;-86
2023/01/25 10:56:31;;;;;;;32.73;15.17;;;0.50;99.90;;;;;;4771917;30;20302;-83
2023/01/25 10:59:13;;;;;;;40.13;17.83;;;0.60;99.90;;;;;;4771835;30;20184;-85
2023/01/25 11:01:39;;;;;;;42.17;18.73;;;0.50;99.90;;;;;;4771848;30;20435;-86
2023/01/25 11:04:30;;;;;;;34.13;16.63;;;0.50;99.90;;;;;;4771773;30;20188;-86
2023/01/25 11:06:57;;;;;;;41.47;19.20;;;0.50;99.90;;;;;;4754805;30;20183;-86
2023/01/25 11:09:38;;;;;;;46.73;19.93;;;0.40;99.90;;;;;;4753922;30;20188;-85
2023/01/25 11:12:17;;;;;;;44.27;19.07;;;0.50;99.90;;;;;;4754099;30;20246;-86
2023/01/25 11:14:43;;;;;;;41.13;19.60;;;0.50;99.90;;;;;;4754908;30;20176;-84
2023/01/25 11:17:25;;;;;;;44.00;18.63;;;0.50;99.90;;;;;;4754405;30;20608;-82
2023/01/25 11:20:13;;;;;;;47.73;20.60;;;0.50;99.90;;;;;;4754420;30;20211;-82
2023/01/25 11:22:52;;;;;;;48.43;20.67;;;0.50;99.90;;;;;;4753992;30;20203;-81
2023/01/25 11:25:38;;;;;;;59.23;23.80;;;0.50;99.90;;;;;;4753169;30;20238;-83
2023/01/25 11:28:15;;;;;;;56.23;24.33;;;0.40;99.90;;;;;;4754142;30;20242;-81
2023/01/25 11:30:41;;;;;;;63.07;25.13;;;0.40;99.90;;;;;;4753205;30;20185;-82
2023/01/25 11:33:15;;;;;;;57.93;23.20;;;0.30;99.90;;;;;;4752557;30;20234;-84
2023/01/25 11:36:12;;;;;;;58.60;23.00;;;0.40;99.90;;;;;;4771894;30;20209;-82
2023/01/25 11:38:50;;;;;;;54.93;22.40;;;0.30;99.90;;;;;;4788497;29;20260;-83
2023/01/25 11:41:24;;;;;;;42.50;19.10;;;0.30;99.90;;;;;;4788657;29;20187;-82
2023/01/25 11:44:07;;;;;;;43.67;17.50;;;0.30;99.90;;;;;;4789695;29;20168;-82
2023/01/25 11:47:00;;;;;;;36.70;17.30;;;0.30;99.90;;;;;;4788407;29;20232;-81
2023/01/25 11:49:53;;;;;;;28.97;14.57;;;0.30;99.90;;;;;;4789679;30;20217;-82
2023/01/25 11:52:21;;;;;;;36.33;15.73;;;0.30;99.90;;;;;;4788091;29;20187;-85
2023/01/25 11:54:55;;;;;;;38.83;15.93;;;0.30;99.90;;;;;;4788145;29;20195;-84
2023/01/25 11:57:58;;;;;;;40.27;17.23;;;0.30;99.90;;;;;;4789411;29;20615;-81
2023/01/25 12:00:35;;;;;;;35.10;16.27;;;0.30;99.90;;;;;;4789460;29;20190;-81
2023/01/25 12:03:18;;;;;;;39.47;18.17;;;0.40;99.90;;;;;;4789191;29;20193;-82
2023/01/25 12:05:56;;;;;;;25.37;11.73;;;0.30;99.90;;;;;;4788042;29;20199;-82
2023/01/25 12:08:22;;;;;;;24.40;11.43;;;0.40;99.90;;;;;;4788229;29;20198;-85
2023/01/25 12:11:32;;;;;;;25.40;11.07;;;0.30;99.90;;;;;;4788193;29;20190;-83
2023/01/25 12:14:13;;;;;;;21.33;10.80;;;0.30;99.90;;;;;;4789119;29;20207;-83
2023/01/25 12:17:04;;;;;;;20.30;9.60;;;0.40;99.90;;;;;;4787741;29;20325;-83
2023/01/25 12:19:42;;;;;;;18.33;9.80;;;0.40;99.90;;;;;;4789210;29;20265;-83
2023/01/25 12:22:22;;;;;;;16.50;9.10;;;0.40;99.90;;;;;;4787529;29;20179;-82
2023/01/25 12:25:03;;;;;;;19.43;9.47;;;0.40;99.90;;;;;;4787881;29;20221;-85
2023/01/25 12:27:50;;;;;;;20.33;9.47;;;0.40;99.90;;;;;;4787912;29;20180;-83
2023/01/25 12:30:42;;;;;;;18.53;9.37;;;0.40;99.90;;;;;;4787704;29;20183;-83
2023/01/25 12:33:20;;;;;;;19.67;9.67;;;0.40;99.90;;;;;;4788751;29;20180;-84
2023/01/25 12:35:56;;;;;;;22.13;10.40;;;0.40;99.90;;;;;;4787384;29;20231;-84
2023/01/25 12:38:31;;;;;;;21.10;10.33;;;0.40;99.90;;;;;;4787629;29;20580;-85
2023/01/25 12:41:21;;;;;;;24.13;11.33;;;0.40;99.90;;;;;;4788852;29;20571;-85
2023/01/25 12:44:05;;;;;;;20.60;10.30;;;0.40;99.90;;;;;;4787202;29;20274;-85
2023/01/25 12:46:38;;;;;;;24.83;11.57;;;0.40;99.90;;;;;;4788912;29;20173;-82
2023/01/25 12:49:14;;;;;;;23.33;11.20;;;0.40;99.90;;;;;;4788535;29;20571;-83
2023/01/25 12:51:42;;;;;;;21.57;10.60;;;0.40;99.90;;;;;;4788430;29;20183;-83
2023/01/25 12:54:29;;;;;;;20.60;10.00;;;0.40;99.90;;;;;;4788584;29;20164;-84
2023/01/25 12:57:14;;;;;;;20.37;9.30;;;0.40;99.90;;;;;;4788719;29;20208;-84
2023/01/25 13:00:04;;;;;;;19.70;9.83;;;0.30;99.90;;;;;;4788749;29;20167;-81
2023/01/25 13:02:56;;;;;;;20.00;9.57;;;0.30;99.90;;;;;;4787274;29;20194;-82
2023/01/25 13:05:39;;;;;;;22.87;11.03;;;0.40;99.90;;;;;;4766760;30;20265;-84